Time;durP1;ratioP1;P1;durP2;ratioP2;P2;SDS_P1;SDS_P2;PMS_P1;PMS_P2;Temp;Humidity;BMP_temperature;BMP_pressure;BME280_temperature;BME280_humidity;BME280_pressure;Samples;Min_cycle;Max_cycle;Signal;HPM_P1;HPM_P2
2021/04/22 00:00:08;;;;;;;31.73;29.42;;;10.20;72.80;;;;;;5094073;28;20215;-77
2021/04/22 00:02:35;;;;;;;31.75;29.58;;;10.20;72.70;;;;;;5094900;28;20652;-77
2021/04/22 00:05:02;;;;;;;30.85;28.88;;;10.10;73.80;;;;;;5094818;28;20192;-77
2021/04/22 00:07:29;;;;;;;31.92;29.83;;;10.00;79.30;;;;;;5093863;28;20207;-77
2021/04/22 00:09:55;;;;;;;30.88;28.90;;;9.90;77.60;;;;;;5094463;28;20651;-77
2021/04/22 00:12:21;;;;;;;31.70;29.60;;;10.00;77.20;;;;;;5094413;28;20240;-77
2021/04/22 00:14:48;;;;;;;30.60;28.70;;;10.00;75.20;;;;;;5094513;28;20283;-77
2021/04/22 00:17:15;;;;;;;30.83;28.92;;;10.00;74.60;;;;;;5093448;28;20278;-76
2021/04/22 00:19:43;;;;;;;31.08;29.08;;;10.10;73.90;;;;;;5093643;28;20203;-77
2021/04/22 00:22:09;;;;;;;31.60;29.70;;;10.10;73.20;;;;;;5094456;28;20210;-77
2021/04/22 00:24:36;;;;;;;31.13;28.80;;;10.20;72.80;;;;;;5093804;28;20219;-77
2021/04/22 00:27:03;;;;;;;30.10;28.20;;;10.30;72.20;;;;;;5093023;28;20681;-77
2021/04/22 00:29:29;;;;;;;30.92;28.85;;;10.30;72.70;;;;;;5093509;28;20202;-77
2021/04/22 00:31:56;;;;;;;30.98;28.98;;;10.20;73.30;;;;;;5093765;28;20627;-77
2021/04/22 00:34:22;;;;;;;30.70;28.60;;;10.20;73.20;;;;;;5093680;28;20677;-77
2021/04/22 00:36:49;;;;;;;31.20;29.20;;;10.10;74.00;;;;;;5092868;28;20668;-77
2021/04/22 00:39:15;;;;;;;30.73;28.50;;;10.00;73.50;;;;;;5092457;28;20203;-77
2021/04/22 00:41:42;;;;;;;32.00;29.65;;;10.00;73.50;;;;;;5093325;28;20225;-77
2021/04/22 00:44:10;;;;;;;30.25;28.33;;;10.10;73.30;;;;;;5093336;28;20226;-77
2021/04/22 00:46:37;;;;;;;31.33;29.15;;;10.20;73.20;;;;;;5092810;28;20195;-77
2021/04/22 00:49:05;;;;;;;31.13;28.85;;;10.20;74.90;;;;;;5093259;28;20723;-77
2021/04/22 00:51:32;;;;;;;30.67;28.75;;;10.20;73.70;;;;;;5092987;28;20219;-77
2021/04/22 00:53:58;;;;;;;31.15;29.05;;;10.20;74.80;;;;;;5093139;28;20244;-77
2021/04/22 00:56:25;;;;;;;30.83;28.92;;;10.30;75.10;;;;;;5092759;28;20282;-77
2021/04/22 00:58:52;;;;;;;32.22;30.23;;;10.40;74.00;;;;;;5093123;28;20202;-77
2021/04/22 01:01:18;;;;;;;33.45;31.20;;;10.40;73.30;;;;;;5093075;28;20580;-77
2021/04/22 01:03:46;;;;;;;31.15;29.00;;;10.40;73.60;;;;;;5092764;28;20302;-77
2021/04/22 01:06:12;;;;;;;31.95;29.40;;;10.40;74.30;;;;;;5092537;28;20283;-77
2021/04/22 01:08:39;;;;;;;31.70;29.60;;;10.40;74.60;;;;;;5092946;28;20195;-77
2021/04/22 01:11:06;;;;;;;31.17;29.23;;;10.50;75.20;;;;;;5092870;28;20215;-77
2021/04/22 01:13:33;;;;;;;31.55;29.33;;;10.50;75.10;;;;;;5092755;28;20191;-77
2021/04/22 01:16:00;;;;;;;31.20;29.13;;;10.50;77.30;;;;;;5092457;28;20281;-77
2021/04/22 01:18:27;;;;;;;32.17;30.02;;;10.50;80.40;;;;;;5092530;28;20226;-77
2021/04/22 01:20:53;;;;;;;30.92;28.83;;;10.60;78.10;;;;;;5092257;28;20221;-77
2021/04/22 01:23:21;;;;;;;31.58;29.17;;;10.80;77.30;;;;;;5092720;28;20222;-77
2021/04/22 01:25:50;;;;;;;32.42;30.33;;;10.60;77.10;;;;;;5091949;28;20249;-77
2021/04/22 01:28:18;;;;;;;32.50;30.20;;;10.50;77.80;;;;;;5092575;28;20328;-77
2021/04/22 01:30:48;;;;;;;31.60;29.50;;;10.50;78.80;;;;;;5092446;28;20221;-77
2021/04/22 01:33:16;;;;;;;32.72;30.25;;;10.50;80.90;;;;;;5092504;28;20649;-77
2021/04/22 01:35:45;;;;;;;32.38;30.17;;;10.40;82.40;;;;;;5091987;28;20285;-77
2021/04/22 01:38:13;;;;;;;34.65;32.15;;;10.40;82.90;;;;;;5092589;28;20226;-77
2021/04/22 01:40:40;;;;;;;33.80;31.50;;;10.40;83.00;;;;;;5092451;28;20298;-76
2021/04/22 01:43:08;;;;;;;33.55;31.25;;;10.50;83.00;;;;;;5092482;28;20581;-77
2021/04/22 01:45:35;;;;;;;31.67;29.45;;;10.50;82.70;;;;;;5091768;28;20282;-77
2021/04/22 01:48:02;;;;;;;33.78;31.05;;;10.50;82.70;;;;;;5092280;28;20736;-76
2021/04/22 01:50:31;;;;;;;31.73;29.63;;;10.50;83.00;;;;;;5092045;28;20297;-77
2021/04/22 01:52:58;;;;;;;33.03;30.73;;;10.50;84.40;;;;;;5092385;28;20298;-76
2021/04/22 01:55:30;;;;;;;32.85;30.45;;;10.50;83.90;;;;;;5092052;28;20289;-76
2021/04/22 01:57:57;;;;;;;32.13;29.83;;;10.40;84.40;;;;;;5092262;28;20236;-77
2021/04/22 02:00:27;;;;;;;33.33;30.67;;;10.40;85.30;;;;;;5092005;28;20305;-77
2021/04/22 02:02:54;;;;;;;32.35;30.05;;;10.50;85.10;;;;;;5092265;28;20690;-77
2021/04/22 02:05:21;;;;;;;33.50;31.10;;;10.60;86.50;;;;;;5091881;28;20246;-80
2021/04/22 02:07:48;;;;;;;32.75;30.45;;;10.60;85.00;;;;;;5091942;28;20281;-77
2021/04/22 02:10:15;;;;;;;32.90;30.30;;;10.60;85.00;;;;;;5091896;28;20254;-77
2021/04/22 02:12:41;;;;;;;36.60;33.72;;;10.60;85.00;;;;;;5092187;28;20234;-77
2021/04/22 02:15:12;;;;;;;34.55;31.95;;;10.60;84.70;;;;;;5092096;28;20195;-76
2021/04/22 02:17:38;;;;;;;33.60;31.02;;;10.70;84.60;;;;;;5091675;28;20196;-76
2021/04/22 02:20:07;;;;;;;36.78;33.92;;;10.80;84.50;;;;;;5091389;28;20272;-77
2021/04/22 02:22:33;;;;;;;38.25;35.20;;;10.90;84.20;;;;;;5092219;28;20195;-76
2021/04/22 02:25:00;;;;;;;40.10;36.90;;;10.90;83.90;;;;;;5091610;28;20286;-77
2021/04/22 02:27:26;;;;;;;41.45;37.95;;;10.90;83.20;;;;;;5091494;28;20703;-77
2021/04/22 02:29:53;;;;;;;41.78;38.40;;;11.00;82.40;;;;;;5091948;28;20302;-77
2021/04/22 02:32:20;;;;;;;42.80;39.33;;;10.90;82.40;;;;;;5091974;28;20290;-77
2021/04/22 02:34:46;;;;;;;41.72;38.42;;;11.00;81.70;;;;;;5091950;28;20216;-77
2021/04/22 02:37:13;;;;;;;44.85;41.08;;;11.10;81.50;;;;;;5091362;28;20207;-77
2021/04/22 02:39:39;;;;;;;48.47;44.03;;;11.20;80.80;;;;;;5091700;28;20735;-77
2021/04/22 02:42:06;;;;;;;49.15;44.40;;;11.20;79.50;;;;;;5091804;28;20202;-77
2021/04/22 02:44:33;;;;;;;47.78;43.40;;;11.10;79.30;;;;;;5091812;28;20219;-77
2021/04/22 02:46:59;;;;;;;47.33;43.42;;;11.20;79.40;;;;;;5091235;28;20203;-77
2021/04/22 02:49:27;;;;;;;48.93;44.10;;;11.20;79.30;;;;;;5091739;28;20285;-77
2021/04/22 02:51:53;;;;;;;53.42;49.17;;;11.20;79.60;;;;;;5091706;28;20497;-77
2021/04/22 02:54:19;;;;;;;52.38;47.55;;;11.20;80.40;;;;;;5091573;28;20310;-78
2021/04/22 02:56:46;;;;;;;47.03;42.97;;;11.20;84.00;;;;;;5091212;28;20287;-77
2021/04/22 02:59:12;;;;;;;48.43;44.37;;;11.20;82.50;;;;;;5091756;28;20507;-78
2021/04/22 03:01:38;;;;;;;50.05;45.75;;;11.20;80.20;;;;;;5091580;28;20913;-77
2021/04/22 03:04:06;;;;;;;50.60;46.00;;;11.10;79.20;;;;;;5094508;28;20229;-77
2021/04/22 03:06:33;;;;;;;50.10;45.88;;;11.00;78.60;;;;;;5094769;28;20503;-77
2021/04/22 03:08:59;;;;;;;53.15;48.33;;;11.00;78.70;;;;;;5095427;28;20617;-77
2021/04/22 03:11:26;;;;;;;50.28;45.65;;;10.90;79.20;;;;;;5095202;28;20306;-77
2021/04/22 03:13:52;;;;;;;53.25;48.72;;;10.90;78.40;;;;;;5095248;28;20234;-77
2021/04/22 03:16:19;;;;;;;51.80;47.28;;;11.00;78.60;;;;;;5094679;28;20192;-78
2021/04/22 03:18:45;;;;;;;54.33;49.63;;;11.10;78.30;;;;;;5094978;28;20282;-78
2021/04/22 03:21:11;;;;;;;52.15;47.60;;;11.00;78.50;;;;;;5094375;28;20223;-77
2021/04/22 03:23:38;;;;;;;48.20;43.80;;;11.00;78.40;;;;;;5094850;28;20305;-77
2021/04/22 03:26:05;;;;;;;51.05;46.78;;;11.00;78.70;;;;;;5094061;28;20729;-78
2021/04/22 03:28:31;;;;;;;47.80;43.70;;;11.00;78.60;;;;;;5094909;28;20764;-77
2021/04/22 03:30:58;;;;;;;49.80;45.20;;;10.90;77.90;;;;;;5094840;28;20638;-77
2021/04/22 03:33:24;;;;;;;47.97;43.97;;;10.90;78.40;;;;;;5095069;28;20456;-77
2021/04/22 03:35:51;;;;;;;46.17;42.53;;;10.90;78.50;;;;;;5094774;28;20298;-76
2021/04/22 03:38:17;;;;;;;48.25;44.05;;;10.80;78.20;;;;;;5094713;28;20553;-76
2021/04/22 03:40:45;;;;;;;48.42;44.42;;;10.90;78.90;;;;;;5094612;28;20652;-77
2021/04/22 03:43:12;;;;;;;46.25;42.25;;;11.00;77.70;;;;;;5094710;28;20219;-77
2021/04/22 03:45:38;;;;;;;49.17;45.30;;;10.90;77.50;;;;;;5094228;28;20306;-76
2021/04/22 03:48:05;;;;;;;45.28;41.42;;;10.80;77.30;;;;;;5094441;28;20207;-77
2021/04/22 03:50:32;;;;;;;46.00;42.10;;;10.70;77.80;;;;;;5094581;28;20306;-77
2021/04/22 03:52:58;;;;;;;46.53;42.53;;;10.70;78.10;;;;;;5094948;28;20199;-77
2021/04/22 03:55:25;;;;;;;48.22;44.53;;;10.70;77.90;;;;;;5094641;28;20195;-76
2021/04/22 03:57:52;;;;;;;44.92;41.20;;;10.60;78.10;;;;;;5094009;28;20199;-76
2021/04/22 04:00:22;;;;;;;47.00;42.55;;;10.50;78.50;;;;;;5094406;28;20302;-77
2021/04/22 04:02:49;;;;;;;44.20;40.10;;;10.50;78.70;;;;;;5094252;28;20221;-77
2021/04/22 04:05:16;;;;;;;47.17;43.08;;;10.60;78.30;;;;;;5094011;28;20201;-76
2021/04/22 04:07:42;;;;;;;49.08;45.17;;;10.60;78.10;;;;;;5093647;28;20217;-76
2021/04/22 04:10:10;;;;;;;45.75;41.97;;;10.50;78.60;;;;;;5093992;28;20345;-77
2021/04/22 04:12:37;;;;;;;51.55;47.22;;;10.40;78.90;;;;;;5093990;28;20665;-76
2021/04/22 04:15:06;;;;;;;56.13;44.55;;;10.20;79.40;;;;;;5093821;28;20199;-76
2021/04/22 04:17:33;;;;;;;44.10;40.50;;;10.20;79.30;;;;;;5093364;28;20341;-76
2021/04/22 04:20:00;;;;;;;46.97;42.97;;;10.20;78.90;;;;;;5093296;28;20229;-76
2021/04/22 04:22:27;;;;;;;43.72;40.03;;;10.20;78.70;;;;;;5093924;28;20217;-76
2021/04/22 04:24:53;;;;;;;46.80;42.50;;;10.00;79.10;;;;;;5093588;28;20261;-76
2021/04/22 04:27:20;;;;;;;48.92;44.80;;;9.90;79.50;;;;;;5093238;28;20282;-76
2021/04/22 04:29:47;;;;;;;42.83;39.28;;;9.90;79.90;;;;;;5093748;28;20595;-77
2021/04/22 04:32:14;;;;;;;45.05;41.00;;;9.90;79.10;;;;;;5093536;28;20623;-76
2021/04/22 04:34:41;;;;;;;45.35;41.35;;;9.90;79.00;;;;;;5093726;28;20629;-76
2021/04/22 04:37:07;;;;;;;49.50;45.30;;;9.90;79.10;;;;;;5092955;28;20199;-77
2021/04/22 04:39:33;;;;;;;47.15;43.13;;;9.90;79.10;;;;;;5093553;28;20191;-77
2021/04/22 04:42:00;;;;;;;48.85;45.03;;;9.90;79.00;;;;;;5093574;28;20291;-76
2021/04/22 04:44:26;;;;;;;46.33;42.50;;;10.00;78.60;;;;;;5093361;28;20307;-76
2021/04/22 04:46:53;;;;;;;43.70;39.60;;;9.90;79.20;;;;;;5092643;28;20242;-77
2021/04/22 04:49:20;;;;;;;45.42;41.67;;;9.80;79.30;;;;;;5093617;28;20282;-77
2021/04/22 04:51:46;;;;;;;43.22;39.55;;;9.80;79.10;;;;;;5093521;28;20262;-76
2021/04/22 04:54:13;;;;;;;46.95;42.83;;;9.80;79.30;;;;;;5093787;28;20282;-77
2021/04/22 04:56:39;;;;;;;45.72;41.90;;;9.80;79.20;;;;;;5092877;28;20195;-77
2021/04/22 04:59:06;;;;;;;50.28;45.92;;;9.80;79.30;;;;;;5093161;28;20281;-77
2021/04/22 05:01:32;;;;;;;45.20;41.33;;;9.80;79.20;;;;;;5092971;28;20274;-77
2021/04/22 05:03:58;;;;;;;44.38;40.42;;;9.80;79.10;;;;;;5093122;28;20258;-77
2021/04/22 05:06:26;;;;;;;46.58;42.47;;;9.80;79.40;;;;;;5092339;28;20207;-76
2021/04/22 05:08:52;;;;;;;44.15;39.97;;;10.00;78.80;;;;;;5093134;28;20625;-77
2021/04/22 05:11:18;;;;;;;44.72;41.13;;;10.00;78.70;;;;;;5092973;28;20278;-77
2021/04/22 05:13:45;;;;;;;43.15;39.65;;;10.10;78.10;;;;;;5092858;28;20290;-77
2021/04/22 05:16:12;;;;;;;47.58;43.55;;;10.20;77.70;;;;;;5092167;28;20283;-77
2021/04/22 05:18:38;;;;;;;45.83;41.92;;;10.30;77.50;;;;;;5093009;28;20202;-77
2021/04/22 05:21:05;;;;;;;50.50;46.55;;;10.30;77.80;;;;;;5092036;28;20215;-77
2021/04/22 05:23:33;;;;;;;44.40;40.60;;;10.50;77.60;;;;;;5092600;28;20254;-77
2021/04/22 05:25:59;;;;;;;49.50;44.70;;;10.60;77.00;;;;;;5091440;28;20278;-77
2021/04/22 05:28:25;;;;;;;44.80;40.90;;;10.60;76.60;;;;;;5092591;28;20282;-77
2021/04/22 05:30:52;;;;;;;44.63;41.13;;;10.50;76.60;;;;;;5092501;28;20302;-77
2021/04/22 05:33:18;;;;;;;46.60;42.55;;;10.70;76.20;;;;;;5092645;28;20191;-77
2021/04/22 05:35:45;;;;;;;45.55;41.80;;;10.80;75.30;;;;;;5091981;28;20198;-77
2021/04/22 05:38:12;;;;;;;44.20;40.75;;;10.80;75.20;;;;;;5092590;28;20199;-77
2021/04/22 05:40:39;;;;;;;47.42;43.40;;;10.70;75.60;;;;;;5092378;28;20301;-78
2021/04/22 05:43:07;;;;;;;48.38;43.50;;;10.70;75.50;;;;;;5092351;28;20278;-77
2021/04/22 05:45:34;;;;;;;45.35;41.53;;;10.80;75.30;;;;;;5091875;28;20195;-77
2021/04/22 05:48:00;;;;;;;43.58;39.97;;;10.70;75.10;;;;;;5092464;28;20290;-77
2021/04/22 05:50:26;;;;;;;44.03;40.22;;;10.60;75.90;;;;;;5092179;28;20302;-77
2021/04/22 05:52:53;;;;;;;45.35;41.75;;;10.50;76.40;;;;;;5092386;28;20199;-77
2021/04/22 05:55:19;;;;;;;44.42;40.53;;;10.50;76.50;;;;;;5092212;28;20282;-77
2021/04/22 05:57:47;;;;;;;46.38;42.40;;;10.50;76.70;;;;;;5091924;28;20234;-77
2021/04/22 06:00:17;;;;;;;47.78;44.08;;;10.40;76.70;;;;;;5092207;28;20302;-77
2021/04/22 06:02:43;;;;;;;46.58;42.47;;;10.30;77.10;;;;;;5092297;28;20664;-77
2021/04/22 06:05:11;;;;;;;48.75;44.92;;;10.40;77.10;;;;;;5091950;28;20659;-77
2021/04/22 06:07:37;;;;;;;45.08;41.15;;;10.30;77.10;;;;;;5091877;28;20223;-77
2021/04/22 06:10:06;;;;;;;46.63;42.65;;;10.30;77.30;;;;;;5092225;28;20251;-78
2021/04/22 06:12:32;;;;;;;45.85;41.85;;;10.20;77.40;;;;;;5092886;28;20199;-79
2021/04/22 06:15:00;;;;;;;45.05;41.33;;;10.20;77.70;;;;;;5094535;28;20231;-77
2021/04/22 06:17:26;;;;;;;46.92;42.92;;;10.10;78.10;;;;;;5095461;28;20274;-78
2021/04/22 06:19:52;;;;;;;48.75;44.65;;;10.20;78.10;;;;;;5094131;28;20252;-77
2021/04/22 06:22:19;;;;;;;45.63;42.03;;;10.30;77.90;;;;;;5094757;28;20231;-78
2021/04/22 06:24:45;;;;;;;48.33;44.13;;;10.50;77.10;;;;;;5094544;28;20650;-77
2021/04/22 06:27:12;;;;;;;45.30;41.30;;;10.50;76.70;;;;;;5092598;28;20290;-77
2021/04/22 06:29:39;;;;;;;47.97;43.90;;;10.50;76.60;;;;;;5093756;28;20226;-78
2021/04/22 06:32:07;;;;;;;46.70;42.92;;;10.50;76.70;;;;;;5093331;28;20203;-77
2021/04/22 06:34:33;;;;;;;46.03;42.28;;;10.50;77.20;;;;;;5092756;28;20653;-77
2021/04/22 06:37:00;;;;;;;47.17;42.72;;;10.40;77.30;;;;;;5091831;28;20201;-78
2021/04/22 06:39:26;;;;;;;45.50;41.90;;;10.40;77.50;;;;;;5095652;28;20206;-78
2021/04/22 06:41:53;;;;;;;42.92;39.42;;;10.60;77.00;;;;;;5096269;28;20301;-77
2021/04/22 06:44:20;;;;;;;44.75;40.90;;;10.80;75.80;;;;;;5096582;28;20580;-77
2021/04/22 06:46:46;;;;;;;42.30;38.70;;;10.70;76.40;;;;;;5095629;28;20287;-77
2021/04/22 06:49:13;;;;;;;46.53;42.30;;;10.80;75.70;;;;;;5096092;28;20298;-77
2021/04/22 06:51:40;;;;;;;44.42;40.67;;;10.90;75.70;;;;;;5096051;28;20760;-77
2021/04/22 06:54:07;;;;;;;43.67;40.17;;;10.90;75.30;;;;;;5095877;28;20191;-77
2021/04/22 06:56:33;;;;;;;44.23;40.40;;;11.00;74.60;;;;;;5095597;28;20282;-77
2021/04/22 06:59:00;;;;;;;45.43;41.93;;;10.80;74.00;;;;;;5096120;28;20810;-77
2021/04/22 07:01:27;;;;;;;41.63;38.33;;;10.70;74.40;;;;;;5095741;28;20469;-77
2021/04/22 07:03:54;;;;;;;42.00;38.60;;;10.80;73.90;;;;;;5095237;28;20221;-78
2021/04/22 07:06:21;;;;;;;41.28;38.13;;;10.60;74.50;;;;;;5094922;28;20282;-78
2021/04/22 07:08:48;;;;;;;46.42;42.30;;;10.60;74.90;;;;;;5095473;28;20255;-77
2021/04/22 07:11:14;;;;;;;42.95;39.35;;;10.60;74.90;;;;;;5095258;28;20243;-77
2021/04/22 07:13:41;;;;;;;42.90;39.40;;;10.70;74.40;;;;;;5096198;28;20192;-78
2021/04/22 07:16:08;;;;;;;42.78;39.38;;;11.00;73.40;;;;;;5094936;28;20287;-78
2021/04/22 07:18:34;;;;;;;42.83;39.40;;;11.00;72.80;;;;;;5095890;28;20237;-78
2021/04/22 07:21:01;;;;;;;42.33;39.03;;;11.10;72.60;;;;;;5095197;28;20215;-77
2021/04/22 07:23:28;;;;;;;46.63;42.92;;;11.00;72.90;;;;;;5094963;28;20306;-78
2021/04/22 07:25:55;;;;;;;43.10;39.50;;;11.00;73.00;;;;;;5094477;28;20191;-77
2021/04/22 07:28:21;;;;;;;43.40;39.55;;;11.10;72.70;;;;;;5095287;28;20237;-77
2021/04/22 07:30:48;;;;;;;42.40;38.73;;;11.00;73.00;;;;;;5095342;28;20310;-76
2021/04/22 07:33:15;;;;;;;44.00;40.07;;;11.00;73.30;;;;;;5094877;28;20992;-76
2021/04/22 07:35:42;;;;;;;45.93;42.43;;;11.30;71.90;;;;;;5094316;28;20539;-77
2021/04/22 07:38:10;;;;;;;44.67;40.83;;;11.40;71.30;;;;;;5095008;28;20536;-77
2021/04/22 07:40:38;;;;;;;42.25;38.35;;;11.60;70.40;;;;;;5094928;28;20273;-77
2021/04/22 07:43:05;;;;;;;43.80;40.27;;;11.70;70.20;;;;;;5094896;28;20261;-77
2021/04/22 07:45:34;;;;;;;43.28;39.97;;;11.60;70.10;;;;;;5094721;28;20578;-77
2021/04/22 07:48:02;;;;;;;40.33;37.13;;;11.50;70.30;;;;;;5094665;28;20245;-77
2021/04/22 07:50:29;;;;;;;41.93;38.67;;;11.20;70.90;;;;;;5094708;28;20473;-77
2021/04/22 07:52:56;;;;;;;41.47;38.20;;;11.10;71.50;;;;;;5094709;28;20537;-77
2021/04/22 07:55:26;;;;;;;42.43;38.77;;;11.10;71.50;;;;;;5094291;28;20932;-77
2021/04/22 07:57:53;;;;;;;44.30;41.00;;;11.10;71.60;;;;;;5094509;28;20868;-77
2021/04/22 08:00:21;;;;;;;42.53;39.03;;;10.90;71.80;;;;;;5094411;28;20211;-78
2021/04/22 08:02:50;;;;;;;41.38;37.97;;;11.00;71.70;;;;;;5094161;28;20457;-77
2021/04/22 08:05:18;;;;;;;41.08;37.58;;;11.30;70.50;;;;;;5095772;28;20617;-78
2021/04/22 08:07:45;;;;;;;40.40;37.10;;;11.20;70.80;;;;;;5094558;28;20294;-77
2021/04/22 08:10:14;;;;;;;41.10;37.60;;;11.20;70.80;;;;;;5095119;28;20219;-78
2021/04/22 08:12:40;;;;;;;38.72;35.53;;;11.30;69.90;;;;;;5094642;28;20492;-78
2021/04/22 08:15:10;;;;;;;39.45;35.97;;;11.20;69.60;;;;;;5095194;28;20278;-77
2021/04/22 08:17:37;;;;;;;41.23;37.67;;;11.10;69.70;;;;;;5094193;28;20191;-78
2021/04/22 08:20:06;;;;;;;39.90;36.85;;;11.10;69.50;;;;;;5095929;28;20556;-77
2021/04/22 08:22:33;;;;;;;40.43;36.47;;;11.20;69.50;;;;;;5094257;28;20200;-76
2021/04/22 08:25:00;;;;;;;39.80;36.60;;;11.40;68.90;;;;;;5093618;28;20559;-75
2021/04/22 08:27:26;;;;;;;39.70;36.43;;;11.70;67.70;;;;;;5093024;28;20544;-76
2021/04/22 08:29:53;;;;;;;38.63;35.63;;;11.80;67.30;;;;;;5093878;28;20490;-76
2021/04/22 08:32:21;;;;;;;38.87;35.77;;;11.80;67.10;;;;;;5093905;28;21003;-76
2021/04/22 08:34:47;;;;;;;38.90;35.87;;;11.70;67.90;;;;;;5093914;28;20540;-77
2021/04/22 08:37:13;;;;;;;38.10;35.10;;;12.00;66.30;;;;;;5093450;28;20946;-76
2021/04/22 08:39:40;;;;;;;38.83;35.57;;;12.20;65.20;;;;;;5093670;28;20453;-76
2021/04/22 08:42:07;;;;;;;37.33;34.37;;;12.00;65.50;;;;;;5093562;28;20492;-76
2021/04/22 08:44:33;;;;;;;38.00;34.47;;;11.80;65.40;;;;;;5093675;28;20816;-76
2021/04/22 08:47:00;;;;;;;36.10;33.50;;;11.90;65.30;;;;;;5092875;28;20522;-76
2021/04/22 08:49:28;;;;;;;38.23;34.37;;;11.90;65.10;;;;;;5093442;28;20449;-77
2021/04/22 08:51:55;;;;;;;36.90;33.97;;;12.00;65.80;;;;;;5093400;28;20525;-77
2021/04/22 08:54:21;;;;;;;38.77;35.60;;;12.10;65.20;;;;;;5093435;28;20861;-77
2021/04/22 08:56:48;;;;;;;37.00;34.27;;;12.30;65.20;;;;;;5092570;28;20536;-77
2021/04/22 08:59:15;;;;;;;42.37;39.30;;;12.40;64.30;;;;;;5093651;28;20441;-77
2021/04/22 09:01:42;;;;;;;39.50;35.87;;;12.60;63.70;;;;;;5093258;28;21055;-76
2021/04/22 09:04:08;;;;;;;40.03;37.20;;;12.70;63.30;;;;;;5093298;28;20781;-77
2021/04/22 09:06:37;;;;;;;39.07;35.97;;;12.70;62.90;;;;;;5092521;28;20532;-77
2021/04/22 09:09:05;;;;;;;36.23;33.50;;;12.70;62.60;;;;;;5093076;28;20449;-77
2021/04/22 09:11:31;;;;;;;38.00;34.97;;;12.70;62.70;;;;;;5092850;28;20529;-77
2021/04/22 09:13:58;;;;;;;37.70;34.70;;;12.60;62.90;;;;;;5093281;28;20532;-77
2021/04/22 09:16:27;;;;;;;37.57;34.80;;;13.00;62.10;;;;;;5092550;28;20568;-77
2021/04/22 09:18:56;;;;;;;38.17;34.97;;;13.20;61.90;;;;;;5092921;28;20481;-77
2021/04/22 09:21:26;;;;;;;38.40;34.87;;;13.00;62.00;;;;;;5092206;28;20480;-77
2021/04/22 09:23:59;;;;;;;37.90;34.70;;;12.80;62.00;;;;;;5092994;28;20528;-77
2021/04/22 09:26:36;;;;;;;37.83;34.90;;;12.70;62.30;;;;;;5092194;28;20548;-77
2021/04/22 09:29:04;;;;;;;36.47;33.63;;;12.60;61.90;;;;;;5092857;28;20453;-77
2021/04/22 09:31:30;;;;;;;37.27;34.43;;;12.70;61.80;;;;;;5092736;28;20465;-77
2021/04/22 09:34:03;;;;;;;43.00;39.97;;;12.70;61.30;;;;;;5092585;28;20528;-77
2021/04/22 09:36:40;;;;;;;37.17;34.23;;;12.60;61.90;;;;;;5092180;28;20461;-76
2021/04/22 09:39:08;;;;;;;40.80;37.70;;;12.60;62.00;;;;;;5092610;28;20488;-77
2021/04/22 09:41:35;;;;;;;36.27;33.33;;;12.70;62.10;;;;;;5092273;28;20552;-77
2021/04/22 09:44:06;;;;;;;35.07;32.27;;;13.10;61.00;;;;;;5092612;28;20477;-77
2021/04/22 09:46:33;;;;;;;37.27;34.67;;;12.90;60.20;;;;;;5091978;28;21008;-77
2021/04/22 09:49:00;;;;;;;40.87;38.00;;;12.70;60.20;;;;;;5092650;28;20531;-77
2021/04/22 09:51:30;;;;;;;34.57;32.10;;;12.40;61.00;;;;;;5092602;28;20936;-78
2021/04/22 09:54:10;;;;;;;32.40;30.10;;;12.60;60.10;;;;;;5092761;28;20957;-77
2021/04/22 09:56:46;;;;;;;34.60;31.70;;;12.90;60.40;;;;;;5092438;28;20482;-77
2021/04/22 09:59:17;;;;;;;34.90;32.17;;;13.00;59.80;;;;;;5092546;28;20528;-78
2021/04/22 10:01:47;;;;;;;32.87;30.57;;;13.10;58.40;;;;;;5092298;28;20504;-78
2021/04/22 10:04:16;;;;;;;35.83;32.70;;;12.90;58.50;;;;;;5092368;28;20534;-78
2021/04/22 10:06:45;;;;;;;32.40;30.00;;;12.90;58.30;;;;;;5092152;28;20461;-77
2021/04/22 10:09:12;;;;;;;36.63;34.10;;;12.90;57.20;;;;;;5092365;28;20460;-77
2021/04/22 10:11:43;;;;;;;34.90;32.27;;;12.80;57.40;;;;;;5092984;28;20477;-77
2021/04/22 10:14:10;;;;;;;34.07;31.43;;;12.90;56.40;;;;;;5096378;28;20441;-77
2021/04/22 10:16:36;;;;;;;33.70;31.00;;;12.90;56.00;;;;;;5095841;28;20453;-78
2021/04/22 10:19:13;;;;;;;32.90;30.60;;;12.90;55.20;;;;;;5096253;28;20453;-78
2021/04/22 10:21:42;;;;;;;35.53;32.80;;;13.10;54.90;;;;;;5095579;28;21051;-78
2021/04/22 10:24:12;;;;;;;34.33;31.20;;;13.00;54.60;;;;;;5096123;28;20468;-77
2021/04/22 10:26:39;;;;;;;32.27;30.07;;;13.00;53.80;;;;;;5095299;28;20452;-77
2021/04/22 10:29:06;;;;;;;33.10;30.63;;;12.90;53.60;;;;;;5095960;28;21015;-77
2021/04/22 10:31:33;;;;;;;31.10;28.60;;;13.00;52.30;;;;;;5096028;28;20469;-77
2021/04/22 10:34:00;;;;;;;33.67;31.20;;;13.10;52.80;;;;;;5096027;28;20661;-77
2021/04/22 10:36:26;;;;;;;33.53;31.20;;;13.30;53.00;;;;;;5095328;28;20451;-78
2021/04/22 10:38:55;;;;;;;33.17;30.40;;;13.40;52.60;;;;;;5095914;28;20460;-77
2021/04/22 10:41:23;;;;;;;32.07;29.67;;;13.40;52.00;;;;;;5096147;28;20508;-77
2021/04/22 10:43:52;;;;;;;29.90;27.87;;;13.40;51.10;;;;;;5096243;28;20977;-77
2021/04/22 10:46:19;;;;;;;30.87;28.77;;;13.40;50.40;;;;;;5095297;28;20536;-77
2021/04/22 10:48:46;;;;;;;29.60;27.80;;;13.40;49.10;;;;;;5095676;28;20465;-77
2021/04/22 10:51:12;;;;;;;29.83;27.73;;;13.40;45.30;;;;;;5095496;28;20469;-77
2021/04/22 10:53:40;;;;;;;30.47;28.07;;;13.50;46.20;;;;;;5095717;28;20531;-77
2021/04/22 10:56:07;;;;;;;32.03;29.57;;;13.60;48.70;;;;;;5094988;28;20461;-76
2021/04/22 10:58:38;;;;;;;31.07;28.93;;;13.60;49.10;;;;;;5095647;28;20528;-76
2021/04/22 11:01:07;;;;;;;30.37;28.33;;;13.80;49.00;;;;;;5095497;28;20469;-77
2021/04/22 11:03:37;;;;;;;32.53;30.30;;;14.00;46.00;;;;;;5095295;28;20453;-76
2021/04/22 11:06:05;;;;;;;29.80;27.70;;;13.90;44.40;;;;;;5094639;28;20500;-76
2021/04/22 11:08:38;;;;;;;30.57;28.53;;;13.80;44.90;;;;;;5095523;28;20463;-77
2021/04/22 11:11:20;;;;;;;28.63;26.90;;;14.00;45.10;;;;;;5097149;28;20557;-77
2021/04/22 11:13:47;;;;;;;29.00;26.80;;;14.30;45.00;;;;;;5098005;28;20505;-78
2021/04/22 11:16:15;;;;;;;28.20;26.30;;;14.50;44.20;;;;;;5095114;28;20453;-77
2021/04/22 11:18:43;;;;;;;28.83;27.03;;;14.30;39.90;;;;;;5095108;28;20818;-76
2021/04/22 11:21:23;;;;;;;28.57;26.67;;;14.20;43.20;;;;;;5094449;28;20568;-77
2021/04/22 11:23:50;;;;;;;27.70;25.70;;;14.30;44.80;;;;;;5094334;28;20481;-77
2021/04/22 11:26:23;;;;;;;29.00;27.00;;;14.20;44.70;;;;;;5094343;28;20503;-78
2021/04/22 11:28:51;;;;;;;29.17;26.97;;;14.30;44.50;;;;;;5095141;28;20964;-77
2021/04/22 11:31:20;;;;;;;28.93;26.90;;;14.00;44.90;;;;;;5094876;28;20480;-77
2021/04/22 11:33:47;;;;;;;30.60;28.30;;;14.10;45.20;;;;;;5095038;28;20457;-78
2021/04/22 11:36:17;;;;;;;29.93;27.43;;;14.20;45.30;;;;;;5094596;28;20586;-77
2021/04/22 11:38:55;;;;;;;29.73;27.73;;;14.30;46.00;;;;;;5095102;28;20457;-77
2021/04/22 11:41:23;;;;;;;29.60;27.30;;;14.50;45.10;;;;;;5094797;28;20606;-77
2021/04/22 11:44:00;;;;;;;29.07;26.83;;;14.50;44.50;;;;;;5094676;28;20547;-77
2021/04/22 11:46:34;;;;;;;29.27;27.17;;;14.30;45.10;;;;;;5094190;28;20449;-77
2021/04/22 11:49:01;;;;;;;29.43;27.27;;;14.30;44.90;;;;;;5094758;28;20891;-77
2021/04/22 11:51:37;;;;;;;29.70;27.77;;;14.40;44.80;;;;;;5094574;28;21001;-77
2021/04/22 11:54:15;;;;;;;29.03;26.93;;;14.20;44.30;;;;;;5094509;28;20544;-77
2021/04/22 11:56:41;;;;;;;32.87;30.53;;;14.00;45.20;;;;;;5094362;28;20506;-78
2021/04/22 11:59:15;;;;;;;28.13;26.37;;;14.20;46.20;;;;;;5094641;28;20451;-77
2021/04/22 12:01:53;;;;;;;29.33;27.43;;;14.50;43.60;;;;;;5094787;28;20492;-77
2021/04/22 12:04:20;;;;;;;29.73;27.60;;;14.70;44.50;;;;;;5094428;28;20943;-78
2021/04/22 12:06:51;;;;;;;29.50;27.50;;;14.70;45.00;;;;;;5093805;28;20898;-77
2021/04/22 12:09:26;;;;;;;32.27;30.43;;;14.60;44.90;;;;;;5096040;28;20445;-77
2021/04/22 12:11:53;;;;;;;29.60;27.50;;;14.50;45.60;;;;;;5095407;28;21029;-77
2021/04/22 12:14:28;;;;;;;30.03;27.60;;;14.30;45.90;;;;;;5094912;28;20582;-77
2021/04/22 12:16:55;;;;;;;29.63;27.50;;;14.30;46.10;;;;;;5093703;28;20463;-77
2021/04/22 12:19:26;;;;;;;30.50;27.83;;;14.20;46.30;;;;;;5094433;28;20536;-77
2021/04/22 12:21:53;;;;;;;28.10;26.20;;;14.30;45.60;;;;;;5095222;28;20469;-77
2021/04/22 12:24:22;;;;;;;29.23;27.30;;;14.20;45.10;;;;;;5097373;28;20499;-77
2021/04/22 12:26:49;;;;;;;28.40;26.30;;;14.50;44.90;;;;;;5093873;28;20489;-77
2021/04/22 12:29:16;;;;;;;28.50;26.47;;;14.60;43.40;;;;;;5094132;28;20886;-77